Racine, Wisconsin
Current Conditions -  °F | °C
As of 5:09 AM on Friday 24 Oct 2014 (Local Time) from KRAC Reporting Station
Overcast Overcast  
Wind Chill: 52°   Ceiling: 800
Heat Index: 52°   Visibility: 7mi
Dew Point: 48°   Wind: 3mph
Humidity: 86%   Direction: 280°W
Pressure: 30.06"   Gusts: NA
Location:  42.73°N, 87.79°W
Report Text: KRAC 241009Z AUTO 28003KT 7SM OVC008 11/09 A3006 RMK AO2 T01110089 $
Loading
Personal Weather Stations






























Interactive Weather Map New forecast layout! Learn more

10-Day Weather Forecast

Advertisements
Track Severe Weather on mobile